createdAt,value
2019-02-06T00:00:09.657Z,99.99
2019-02-06T00:01:09.591Z,99.99
2019-02-06T00:02:09.535Z,99.99
2019-02-06T00:03:09.474Z,99.99
2019-02-06T00:04:09.445Z,99.99
2019-02-06T00:05:14.136Z,99.99
2019-02-06T00:06:09.298Z,99.99
2019-02-06T00:07:09.235Z,99.99
2019-02-06T00:08:09.176Z,99.99
2019-02-06T00:09:09.151Z,99.99
2019-02-06T00:10:09.089Z,99.99
2019-02-06T00:11:09.002Z,99.99
2019-02-06T00:12:08.941Z,99.99
2019-02-06T00:13:08.916Z,99.99
2019-02-06T00:14:08.868Z,99.99
2019-02-06T00:15:08.761Z,99.99
2019-02-06T00:16:08.712Z,99.99
2019-02-06T00:17:08.685Z,99.99
2019-02-06T00:18:08.586Z,99.99
2019-02-06T00:19:08.558Z,99.99
2019-02-06T00:20:08.463Z,99.99
2019-02-06T00:21:08.405Z,99.99
2019-02-06T00:22:08.350Z,99.99
2019-02-06T00:23:08.319Z,99.99
2019-02-06T00:24:08.257Z,99.99
2019-02-06T00:25:08.172Z,99.99
2019-02-06T00:26:08.112Z,99.99
2019-02-06T00:27:08.053Z,99.99
2019-02-06T00:28:08.018Z,99.99
2019-02-06T00:29:07.929Z,99.99
2019-02-06T00:30:07.870Z,99.99
2019-02-06T00:31:07.810Z,99.99
2019-02-06T00:32:07.749Z,99.99
2019-02-06T00:33:07.725Z,99.99
2019-02-06T00:34:07.631Z,99.99
2019-02-06T00:35:07.576Z,99.99
2019-02-06T00:36:07.519Z,99.99
2019-02-06T00:37:07.460Z,99.99
2019-02-06T00:38:07.442Z,99.99
2019-02-06T00:39:07.365Z,99.99
2019-02-06T00:40:07.307Z,99.99
2019-02-06T00:41:07.215Z,99.99
2019-02-06T00:42:07.159Z,99.99
2019-02-06T00:43:07.100Z,99.99
2019-02-06T00:44:07.131Z,99.99
2019-02-06T00:45:07.023Z,99.99
2019-02-06T00:46:06.921Z,99.99
2019-02-06T00:47:06.862Z,99.99
2019-02-06T00:48:06.801Z,99.99
2019-02-06T00:49:06.739Z,99.99
2019-02-06T00:50:06.729Z,99.99
2019-02-06T00:51:06.622Z,99.99
2019-02-06T00:52:06.573Z,99.99
2019-02-06T00:53:06.508Z,99.99
2019-02-06T00:54:06.448Z,99.99
2019-02-06T00:55:06.417Z,99.99
2019-02-06T00:56:06.325Z,99.99
2019-02-06T00:57:06.265Z,99.99
2019-02-06T00:58:06.240Z,99.99
2019-02-06T00:59:06.147Z,99.99
2019-02-06T01:00:06.093Z,99.99
2019-02-06T01:01:06.060Z,99.99
2019-02-06T01:02:05.970Z,99.99
2019-02-06T01:03:05.912Z,99.99
2019-02-06T01:04:05.848Z,99.99
2019-02-06T01:05:05.789Z,99.99
2019-02-06T01:06:05.763Z,99.99
2019-02-06T01:07:05.671Z,99.99
2019-02-06T01:08:05.613Z,99.99
2019-02-06T01:09:05.552Z,99.99
2019-02-06T01:10:05.499Z,99.99
2019-02-06T01:11:05.466Z,99.99
2019-02-06T01:12:05.382Z,99.99
2019-02-06T01:13:05.314Z,99.99
2019-02-06T01:14:05.256Z,99.99
2019-02-06T01:15:05.231Z,99.99
2019-02-06T01:16:05.135Z,99.99
2019-02-06T01:17:05.078Z,99.99
2019-02-06T01:18:05.013Z,99.99
2019-02-06T01:19:04.999Z,99.99
2019-02-06T01:20:04.898Z,99.99
2019-02-06T01:21:04.838Z,99.99
2019-02-06T01:22:04.783Z,99.99
2019-02-06T01:23:04.719Z,99.99
2019-02-06T01:24:04.688Z,99.99
2019-02-06T01:25:04.598Z,99.99
2019-02-06T01:26:04.544Z,99.99
2019-02-06T01:27:04.515Z,99.99
2019-02-06T01:28:04.420Z,99.99
2019-02-06T01:29:04.361Z,99.99
2019-02-06T01:30:04.334Z,99.99
2019-02-06T01:31:04.243Z,99.99
2019-02-06T01:32:04.181Z,99.99
2019-02-06T01:33:04.126Z,99.99
2019-02-06T01:34:04.107Z,99.99
2019-02-06T01:35:04.002Z,99.99
2019-02-06T01:36:03.944Z,99.99
2019-02-06T01:37:03.882Z,99.99
2019-02-06T01:38:03.830Z,99.99
2019-02-06T01:39:03.793Z,99.99
2019-02-06T01:40:03.737Z,99.99
2019-02-06T01:41:03.646Z,99.99
2019-02-06T01:42:03.623Z,99.99
2019-02-06T01:43:03.527Z,99.99
2019-02-06T01:44:03.467Z,99.99
2019-02-06T01:45:03.409Z,99.99
2019-02-06T01:46:03.476Z,99.99
2019-02-06T01:47:03.327Z,99.99
2019-02-06T01:48:03.229Z,99.99
2019-02-06T01:49:03.171Z,99.99
2019-02-06T01:50:03.110Z,99.99
2019-02-06T01:51:03.047Z,99.99
2019-02-06T01:52:03.029Z,99.89
2019-02-06T01:53:02.928Z,99.99
2019-02-06T01:54:02.868Z,99.99
2019-02-06T01:55:02.810Z,99.99
2019-02-06T01:56:02.745Z,99.99
2019-02-06T01:57:02.717Z,99.99
2019-02-06T01:58:02.630Z,99.99
2019-02-06T01:59:02.605Z,99.99
2019-02-06T02:00:02.507Z,99.99
2019-02-06T02:01:02.448Z,99.99
2019-02-06T02:02:02.391Z,99.99
2019-02-06T02:03:02.364Z,99.99
2019-02-06T02:04:02.299Z,99.99
2019-02-06T02:05:02.212Z,99.99
2019-02-06T02:06:02.842Z,99.99
2019-02-06T02:07:02.086Z,99.99
2019-02-06T02:08:02.029Z,99.99
2019-02-06T02:09:01.971Z,99.99
2019-02-06T02:10:01.908Z,99.99
2019-02-06T02:11:01.887Z,99.71
2019-02-06T02:12:01.811Z,99.61
2019-02-06T02:13:01.733Z,99.61
2019-02-06T02:14:01.672Z,99.89
2019-02-06T02:15:01.609Z,99.80
2019-02-06T02:16:01.589Z,99.99
2019-02-06T02:17:01.492Z,99.61
2019-02-06T02:18:01.447Z,99.89
2019-02-06T02:19:01.393Z,99.61
2019-02-06T02:20:01.307Z,99.61
2019-02-06T02:21:01.282Z,99.89
2019-02-06T02:22:01.219Z,99.61
2019-02-06T02:23:01.126Z,99.61
2019-02-06T02:24:01.067Z,99.71
2019-02-06T02:25:01.005Z,99.33
2019-02-06T02:26:00.946Z,99.61
2019-02-06T02:27:00.939Z,99.99
2019-02-06T02:28:00.828Z,99.99
2019-02-06T02:29:00.798Z,99.99
2019-02-06T02:30:00.726Z,99.99
2019-02-06T02:31:00.677Z,99.61
2019-02-06T02:32:00.587Z,99.61
2019-02-06T02:33:00.529Z,99.80
2019-02-06T02:34:00.464Z,99.42
2019-02-06T02:35:00.435Z,99.23
2019-02-06T02:36:00.376Z,98.95
2019-02-06T02:37:00.286Z,98.57
2019-02-06T02:38:00.236Z,98.85
2019-02-06T02:39:00.165Z,98.66
2019-02-06T02:40:00.320Z,99.04
2019-02-06T02:41:00.047Z,98.85
2019-02-06T02:42:00.022Z,97.91
2019-02-06T02:42:59.922Z,97.91
2019-02-06T02:43:59.861Z,97.91
2019-02-06T02:44:59.801Z,97.91
2019-02-06T02:45:59.740Z,98.10
2019-02-06T02:46:59.742Z,97.81
2019-02-06T02:47:59.620Z,97.91
2019-02-06T02:48:59.558Z,98.10
2019-02-06T02:49:59.499Z,98.66
2019-02-06T02:50:59.443Z,99.14
2019-02-06T02:51:59.418Z,99.14
2019-02-06T02:52:59.320Z,99.14
2019-02-06T02:53:59.260Z,99.04
2019-02-06T02:54:59.199Z,99.23
2019-02-06T02:55:59.136Z,99.04
2019-02-06T02:56:59.106Z,99.61
2019-02-06T02:57:59.021Z,99.23
2019-02-06T02:58:58.961Z,99.71
2019-02-06T02:59:58.895Z,99.71
2019-02-06T03:00:58.872Z,98.76
2019-02-06T03:01:58.773Z,99.04
2019-02-06T03:02:58.748Z,97.91
2019-02-06T03:03:58.650Z,98.19
2019-02-06T03:04:58.635Z,99.04
2019-02-06T03:05:58.576Z,98.76
2019-02-06T03:06:58.476Z,98.85
2019-02-06T03:07:58.412Z,99.04
2019-02-06T03:08:58.349Z,98.95
2019-02-06T03:09:58.294Z,98.76
2019-02-06T03:10:58.267Z,98.66
2019-02-06T03:11:58.171Z,98.85
2019-02-06T03:12:58.115Z,98.47
2019-02-06T03:13:58.053Z,99.23
2019-02-06T03:14:58.026Z,99.23
2019-02-06T03:15:57.932Z,99.52
2019-02-06T03:16:57.869Z,99.52
2019-02-06T03:17:57.851Z,99.33
2019-02-06T03:18:57.746Z,99.89
2019-02-06T03:19:57.686Z,99.42
2019-02-06T03:20:57.627Z,99.71
2019-02-06T03:21:57.565Z,99.99
2019-02-06T03:22:57.544Z,99.52
2019-02-06T03:23:57.445Z,99.71
2019-02-06T03:24:57.386Z,99.99
2019-02-06T03:25:57.323Z,99.80
2019-02-06T03:26:57.302Z,99.33
2019-02-06T03:27:57.235Z,99.33
2019-02-06T03:28:57.142Z,98.76
2019-02-06T03:29:57.089Z,98.66
2019-02-06T03:30:57.054Z,99.33
2019-02-06T03:31:56.967Z,99.14
2019-02-06T03:32:56.903Z,98.95
2019-02-06T03:33:56.840Z,98.95
2019-02-06T03:34:56.797Z,98.57
2019-02-06T03:35:56.748Z,99.14
2019-02-06T03:36:56.659Z,98.66
2019-02-06T03:37:56.599Z,98.76
2019-02-06T03:38:56.538Z,98.66
2019-02-06T03:39:56.516Z,98.76
2019-02-06T03:40:56.414Z,98.85
2019-02-06T03:41:56.358Z,98.76
2019-02-06T03:42:56.295Z,99.33
2019-02-06T03:43:56.234Z,98.76
2019-02-06T03:44:56.210Z,98.85
2019-02-06T03:45:56.112Z,98.85
2019-02-06T03:46:56.054Z,99.37
2019-02-06T03:47:55.992Z,99.14
2019-02-06T03:48:55.930Z,99.42
2019-02-06T03:49:55.908Z,98.71
2019-02-06T03:50:55.842Z,98.71
2019-02-06T03:51:55.755Z,97.77
2019-02-06T03:52:55.689Z,97.86
2019-02-06T03:53:55.628Z,97.86
2019-02-06T03:54:55.573Z,97.77
2019-02-06T03:55:55.538Z,97.96
2019-02-06T03:56:55.447Z,97.67
2019-02-06T03:57:55.423Z,98.05
2019-02-06T03:58:55.327Z,98.05
2019-02-06T03:59:55.266Z,97.86
2019-02-06T04:00:55.206Z,97.86
2019-02-06T04:01:55.193Z,97.77
2019-02-06T04:02:55.084Z,97.58
2019-02-06T04:03:55.021Z,98.33
2019-02-06T04:04:54.964Z,98.33
2019-02-06T04:05:54.900Z,97.96
2019-02-06T04:07:00.870Z,97.86
2019-02-06T04:07:54.782Z,97.67
2019-02-06T04:08:54.721Z,98.14
2019-02-06T04:09:54.658Z,98.14
2019-02-06T04:10:54.631Z,97.77
2019-02-06T04:11:54.537Z,97.96
2019-02-06T04:12:54.478Z,97.86
2019-02-06T04:13:54.417Z,99.14
2019-02-06T04:14:54.357Z,98.99
2019-02-06T04:15:54.328Z,99.65
2019-02-06T04:16:54.234Z,99.56
2019-02-06T04:17:54.631Z,99.99
2019-02-06T04:18:54.147Z,99.99
2019-02-06T04:19:54.053Z,99.94
2019-02-06T04:20:53.994Z,99.75
2019-02-06T04:21:53.941Z,99.65
2019-02-06T04:22:53.873Z,99.18
2019-02-06T04:23:53.847Z,99.27
2019-02-06T04:24:53.753Z,98.99
2019-02-06T04:25:53.690Z,99.37
2019-02-06T04:26:53.630Z,99.18
2019-02-06T04:27:53.571Z,98.80
2019-02-06T04:28:53.538Z,98.80
2019-02-06T04:29:53.447Z,98.71
2019-02-06T04:30:53.391Z,99.18
2019-02-06T04:31:53.328Z,98.61
2019-02-06T04:32:53.306Z,98.71
2019-02-06T04:33:53.205Z,98.71
2019-02-06T04:34:53.144Z,98.99
2019-02-06T04:35:53.115Z,99.65
2019-02-06T04:37:05.840Z,99.08
2019-02-06T04:37:52.962Z,98.61
2019-02-06T04:38:52.902Z,98.61
2019-02-06T04:39:52.841Z,98.90
2019-02-06T04:40:52.811Z,98.90
2019-02-06T04:41:52.720Z,98.71
2019-02-06T04:42:52.659Z,99.08
2019-02-06T04:43:52.597Z,98.80
2019-02-06T04:44:52.538Z,98.80
2019-02-06T04:45:52.520Z,98.05
2019-02-06T04:46:52.417Z,97.86
2019-02-06T04:47:52.360Z,97.77
2019-02-06T04:48:52.298Z,98.24
2019-02-06T04:49:52.235Z,97.77
2019-02-06T04:50:52.210Z,97.96
2019-02-06T04:51:52.111Z,97.96
2019-02-06T04:52:52.052Z,98.05
2019-02-06T04:53:52.022Z,98.52
2019-02-06T04:54:51.932Z,97.77
2019-02-06T04:55:51.902Z,98.14
2019-02-06T04:56:51.817Z,98.43
2019-02-06T04:57:51.748Z,97.77
2019-02-06T04:58:51.695Z,97.58
2019-02-06T04:59:51.659Z,97.77
2019-02-06T05:00:51.567Z,97.67
2019-02-06T05:01:51.506Z,97.67
2019-02-06T05:02:51.444Z,98.05
2019-02-06T05:03:51.424Z,98.05
2019-02-06T05:04:51.327Z,97.86
2019-02-06T05:05:51.264Z,98.80
2019-02-06T05:06:51.247Z,98.80
2019-02-06T05:07:51.142Z,99.08
2019-02-06T05:08:51.080Z,98.80
2019-02-06T05:09:51.022Z,99.08
2019-02-06T05:10:50.962Z,98.80
2019-02-06T05:11:50.929Z,99.08
2019-02-06T05:12:50.849Z,98.90
2019-02-06T05:13:50.908Z,99.08
2019-02-06T05:14:50.721Z,98.99
2019-02-06T05:15:50.658Z,98.61
2019-02-06T05:16:50.729Z,98.52
2019-02-06T05:17:50.535Z,98.99
2019-02-06T05:18:50.479Z,98.80
2019-02-06T05:19:50.413Z,98.80
2019-02-06T05:20:50.388Z,99.08
2019-02-06T05:21:50.297Z,98.61
2019-02-06T05:22:50.280Z,98.99
2019-02-06T05:23:50.177Z,99.08
2019-02-06T05:24:50.114Z,98.14
2019-02-06T05:25:50.048Z,97.67
2019-02-06T05:26:49.995Z,97.86
2019-02-06T05:27:49.963Z,98.61
2019-02-06T05:28:49.899Z,97.96
2019-02-06T05:29:49.807Z,97.77
2019-02-06T05:30:49.747Z,97.86
2019-02-06T05:31:49.685Z,97.67
2019-02-06T05:32:49.623Z,97.77
2019-02-06T05:33:49.594Z,97.48
2019-02-06T05:34:49.502Z,97.48
2019-02-06T05:35:49.441Z,97.77
2019-02-06T05:36:50.915Z,97.58
2019-02-06T05:37:49.322Z,97.01
2019-02-06T05:38:49.310Z,97.39
2019-02-06T05:39:49.198Z,97.86
2019-02-06T05:40:49.143Z,97.39
2019-02-06T05:41:49.077Z,97.39
2019-02-06T05:42:50.550Z,97.67
2019-02-06T05:43:48.995Z,97.67
2019-02-06T05:44:48.902Z,98.43
2019-02-06T05:45:48.838Z,98.43
2019-02-06T05:46:48.773Z,97.96
2019-02-06T05:47:48.713Z,97.86
2019-02-06T05:48:49.493Z,98.24
2019-02-06T05:49:48.595Z,97.77
2019-02-06T05:50:48.531Z,97.67
2019-02-06T05:51:48.472Z,98.05
2019-02-06T05:52:48.407Z,98.14
2019-02-06T05:53:48.390Z,98.43
2019-02-06T05:54:48.288Z,97.67
2019-02-06T05:55:48.226Z,97.86
2019-02-06T05:56:48.166Z,98.14
2019-02-06T05:57:48.109Z,97.86
2019-02-06T05:58:48.077Z,97.96
2019-02-06T05:59:48.005Z,97.96
2019-02-06T06:00:47.923Z,97.96
2019-02-06T06:01:47.864Z,97.86
2019-02-06T06:02:47.835Z,97.96
2019-02-06T06:03:47.738Z,97.67
2019-02-06T06:04:47.681Z,97.77
2019-02-06T06:05:47.651Z,98.61
2019-02-06T06:06:47.558Z,98.05
2019-02-06T06:07:47.497Z,97.58
2019-02-06T06:08:47.436Z,97.67
2019-02-06T06:09:47.381Z,98.52
2019-02-06T06:10:47.350Z,97.67
2019-02-06T06:11:47.253Z,97.67
2019-02-06T06:12:47.197Z,97.86
2019-02-06T06:13:47.165Z,97.29
2019-02-06T06:14:47.071Z,97.58
2019-02-06T06:15:47.044Z,97.77
2019-02-06T06:16:46.989Z,97.86
2019-02-06T06:17:46.893Z,97.77
2019-02-06T06:18:46.829Z,97.67
2019-02-06T06:19:46.765Z,97.39
2019-02-06T06:20:46.704Z,96.82
2019-02-06T06:21:46.675Z,96.82
2019-02-06T06:22:46.583Z,97.29
2019-02-06T06:23:46.524Z,96.91
2019-02-06T06:24:46.495Z,97.58
2019-02-06T06:25:46.405Z,97.39
2019-02-06T06:26:46.338Z,97.10
2019-02-06T06:27:46.277Z,97.58
2019-02-06T06:28:46.249Z,97.67
2019-02-06T06:29:46.158Z,97.67
2019-02-06T06:30:47.419Z,97.67
2019-02-06T06:31:46.062Z,97.77
2019-02-06T06:32:45.976Z,97.86
2019-02-06T06:33:45.916Z,98.05
2019-02-06T06:34:45.855Z,97.77
2019-02-06T06:35:45.825Z,97.96
2019-02-06T06:36:45.738Z,98.05
2019-02-06T06:37:57.138Z,97.86
2019-02-06T06:38:45.647Z,97.96
2019-02-06T06:39:45.550Z,98.05
2019-02-06T06:40:45.488Z,97.96
2019-02-06T06:41:45.479Z,97.86
2019-02-06T06:42:45.367Z,97.86
2019-02-06T06:43:45.308Z,98.24
2019-02-06T06:44:45.248Z,98.24
2019-02-06T06:45:45.188Z,98.24
2019-02-06T06:46:45.156Z,97.86
2019-02-06T06:47:45.062Z,97.96
2019-02-06T06:48:45.004Z,98.99
2019-02-06T06:49:44.941Z,98.71
2019-02-06T06:50:44.913Z,99.56
2019-02-06T06:51:44.820Z,99.27
2019-02-06T06:52:44.791Z,99.65
2019-02-06T06:53:44.771Z,99.75
2019-02-06T06:54:44.637Z,99.99
2019-02-06T06:55:44.574Z,99.99
2019-02-06T06:56:44.521Z,99.99
2019-02-06T06:57:44.487Z,99.99
2019-02-06T06:58:44.397Z,99.99
2019-02-06T06:59:44.367Z,99.99
2019-02-06T07:00:44.305Z,99.99
2019-02-06T07:01:44.212Z,99.99
2019-02-06T07:02:44.155Z,99.99
2019-02-06T07:03:44.092Z,99.99
2019-02-06T07:04:44.031Z,99.99
2019-02-06T07:05:44.010Z,99.99
2019-02-06T07:06:46.341Z,99.99
2019-02-06T07:07:43.848Z,99.99
2019-02-06T07:08:43.785Z,99.99
2019-02-06T07:09:43.725Z,99.99
2019-02-06T07:10:43.706Z,99.99
2019-02-06T07:11:43.608Z,99.99
2019-02-06T07:12:43.541Z,99.99
2019-02-06T07:13:43.482Z,99.99
2019-02-06T07:14:43.425Z,99.99
2019-02-06T07:15:43.394Z,99.99
2019-02-06T07:16:43.299Z,99.99
2019-02-06T07:17:43.272Z,99.99
2019-02-06T07:18:43.179Z,99.99
2019-02-06T07:19:43.158Z,99.99
2019-02-06T07:20:43.057Z,99.99
2019-02-06T07:21:42.999Z,99.99
2019-02-06T07:22:42.937Z,99.99
2019-02-06T07:23:42.875Z,99.99
2019-02-06T07:24:42.862Z,99.99
2019-02-06T07:25:42.756Z,99.99
2019-02-06T07:26:42.691Z,99.99
2019-02-06T07:27:42.631Z,99.99
2019-02-06T07:28:42.574Z,99.99
2019-02-06T07:29:42.552Z,99.99
2019-02-06T07:30:42.453Z,99.99
2019-02-06T07:31:42.421Z,99.99
2019-02-06T07:32:42.329Z,99.99
2019-02-06T07:33:42.269Z,99.99
2019-02-06T07:34:42.211Z,99.99
2019-02-06T07:35:42.145Z,99.99
2019-02-06T07:36:42.121Z,99.99
2019-02-06T07:37:42.028Z,99.99
2019-02-06T07:38:41.965Z,99.99
2019-02-06T07:39:41.951Z,99.99
2019-02-06T07:40:41.843Z,99.99
2019-02-06T07:41:41.784Z,99.99
2019-02-06T07:42:41.722Z,99.99
2019-02-06T07:43:41.662Z,99.99
2019-02-06T07:44:41.635Z,99.99
2019-02-06T07:45:41.541Z,99.99
2019-02-06T07:46:41.487Z,99.99
2019-02-06T07:47:41.449Z,99.99
2019-02-06T07:48:41.358Z,99.99
2019-02-06T07:49:41.305Z,99.99
2019-02-06T07:50:41.236Z,99.99
2019-02-06T07:51:41.211Z,99.99
2019-02-06T07:52:41.115Z,99.99
2019-02-06T07:53:41.056Z,99.99
2019-02-06T07:54:41.002Z,99.99
2019-02-06T07:55:40.933Z,99.99
2019-02-06T07:56:40.904Z,99.99
2019-02-06T07:57:40.814Z,99.99
2019-02-06T07:58:40.753Z,99.99
2019-02-06T07:59:40.700Z,99.99
2019-02-06T08:00:40.665Z,99.99
2019-02-06T08:01:40.575Z,99.99
2019-02-06T08:02:40.552Z,99.99
2019-02-06T08:03:40.483Z,99.99
2019-02-06T08:04:41.623Z,99.99
2019-02-06T08:05:40.331Z,99.99
2019-02-06T08:06:40.271Z,99.99
2019-02-06T08:07:40.212Z,99.99
2019-02-06T08:08:40.176Z,99.99
2019-02-06T08:09:40.091Z,99.99
2019-02-06T08:10:40.050Z,99.99
2019-02-06T08:11:39.987Z,99.99
2019-02-06T08:12:39.948Z,99.99
2019-02-06T08:13:39.880Z,99.99
2019-02-06T08:14:39.790Z,99.99
2019-02-06T08:15:39.728Z,99.99
2019-02-06T08:16:39.686Z,99.99
2019-02-06T08:17:39.609Z,99.99
2019-02-06T08:18:39.583Z,99.99
2019-02-06T08:19:39.490Z,99.99
2019-02-06T08:20:39.431Z,99.99
2019-02-06T08:21:39.368Z,99.99
2019-02-06T08:22:39.313Z,99.99
2019-02-06T08:23:39.277Z,99.99
2019-02-06T08:24:39.219Z,99.99
2019-02-06T08:25:39.136Z,99.99
2019-02-06T08:26:39.070Z,99.99
2019-02-06T08:27:39.016Z,99.99
2019-02-06T08:28:38.949Z,99.99
2019-02-06T08:29:38.937Z,99.99
2019-02-06T08:30:38.830Z,99.99
2019-02-06T08:31:38.774Z,99.99
2019-02-06T08:32:38.710Z,99.99
2019-02-06T08:33:38.654Z,99.99
2019-02-06T08:34:38.623Z,99.99
2019-02-06T08:35:38.533Z,99.99
2019-02-06T08:36:38.474Z,99.99
2019-02-06T08:37:38.419Z,99.99
2019-02-06T08:38:47.456Z,99.99
2019-02-06T08:39:38.326Z,99.99
2019-02-06T08:40:38.232Z,99.99
2019-02-06T08:41:38.181Z,99.99
2019-02-06T08:42:38.116Z,99.99
2019-02-06T08:43:38.107Z,99.99
2019-02-06T08:44:37.994Z,99.99
2019-02-06T08:45:37.939Z,99.99
2019-02-06T08:46:37.883Z,99.99
2019-02-06T08:47:37.822Z,99.99
2019-02-06T08:48:37.794Z,99.99
2019-02-06T08:49:37.702Z,99.99
2019-02-06T08:50:37.677Z,99.99
2019-02-06T08:51:37.590Z,99.99
2019-02-06T08:52:37.527Z,99.99
2019-02-06T08:53:37.468Z,99.99
2019-02-06T08:54:37.412Z,99.99
2019-02-06T08:55:37.383Z,99.99
2019-02-06T08:56:37.296Z,99.99
2019-02-06T08:57:37.235Z,99.99
2019-02-06T08:58:37.179Z,99.99
2019-02-06T08:59:37.175Z,99.99
2019-02-06T09:00:37.064Z,99.99
2019-02-06T09:01:37.004Z,99.99
2019-02-06T09:02:36.945Z,99.99
2019-02-06T09:03:36.891Z,99.99
2019-02-06T09:04:36.871Z,99.99
2019-02-06T09:05:36.775Z,99.99
2019-02-06T09:06:36.714Z,99.99
2019-02-06T09:07:36.661Z,99.99
2019-02-06T09:08:36.603Z,99.99
2019-02-06T09:09:36.583Z,99.99
2019-02-06T09:10:36.488Z,99.99
2019-02-06T09:11:36.432Z,99.99
2019-02-06T09:12:36.376Z,99.99
2019-02-06T09:13:36.317Z,99.99
2019-02-06T09:14:36.305Z,99.99
2019-02-06T09:15:36.206Z,99.99
2019-02-06T09:16:36.147Z,99.99
2019-02-06T09:17:36.094Z,99.99
2019-02-06T09:18:36.041Z,99.99
2019-02-06T09:19:36.012Z,99.99
2019-02-06T09:20:35.924Z,99.99
2019-02-06T09:21:35.869Z,99.99
2019-02-06T09:22:35.810Z,99.99
2019-02-06T09:23:35.788Z,99.99
2019-02-06T09:24:35.704Z,99.99
2019-02-06T09:25:35.674Z,99.99
2019-02-06T09:26:36.313Z,99.99
2019-02-06T09:27:35.532Z,99.99
2019-02-06T09:28:37.302Z,99.99
2019-02-06T09:29:35.422Z,99.99
2019-02-06T09:30:35.400Z,99.99
2019-02-06T09:31:35.319Z,99.99
2019-02-06T09:32:35.261Z,99.99
2019-02-06T09:33:35.203Z,99.99
2019-02-06T09:34:35.152Z,99.99
2019-02-06T09:35:35.126Z,99.99
2019-02-06T09:36:35.039Z,99.99
2019-02-06T09:37:34.981Z,99.99
2019-02-06T09:38:34.932Z,99.99
2019-02-06T09:39:34.905Z,99.99
2019-02-06T09:40:34.817Z,99.99
2019-02-06T09:41:34.761Z,99.99
2019-02-06T09:42:34.709Z,99.99
2019-02-06T09:43:34.657Z,99.99
2019-02-06T09:44:34.639Z,99.99
2019-02-06T09:45:34.546Z,99.99
2019-02-06T09:46:34.493Z,99.99
2019-02-06T09:47:34.433Z,99.99
2019-02-06T09:48:34.388Z,99.99
2019-02-06T09:49:34.370Z,99.99
2019-02-06T09:50:34.275Z,99.99
2019-02-06T09:51:34.222Z,99.99
2019-02-06T09:52:34.170Z,99.99
2019-02-06T09:53:34.114Z,99.99
2019-02-06T09:54:34.114Z,99.99
2019-02-06T09:55:34.010Z,99.99
2019-02-06T09:56:33.954Z,99.99
2019-02-06T09:57:35.569Z,99.99
2019-02-06T09:58:33.858Z,99.99
2019-02-06T09:59:33.824Z,99.99
2019-02-06T10:00:33.758Z,99.99
2019-02-06T10:01:33.690Z,99.99
2019-02-06T10:02:33.639Z,99.99
2019-02-06T10:03:33.593Z,99.99
2019-02-06T10:04:33.568Z,99.99
2019-02-06T10:05:33.481Z,99.99
2019-02-06T10:06:33.431Z,99.99
2019-02-06T10:07:33.414Z,99.99
2019-02-06T10:08:33.325Z,99.99
2019-02-06T10:09:33.274Z,99.99
2019-02-06T10:10:33.229Z,99.99
2019-02-06T10:11:33.208Z,99.99
2019-02-06T10:12:33.149Z,99.99
2019-02-06T10:13:33.073Z,99.99
2019-02-06T10:14:33.018Z,99.99
2019-02-06T10:15:32.997Z,99.99
2019-02-06T10:16:32.913Z,99.99
2019-02-06T10:17:32.864Z,99.99
2019-02-06T10:18:32.847Z,99.99
2019-02-06T10:19:32.763Z,99.99
2019-02-06T10:20:32.713Z,99.99
2019-02-06T10:21:32.659Z,99.63
2019-02-06T10:22:32.616Z,99.99
2019-02-06T10:23:32.593Z,99.99
2019-02-06T10:24:32.504Z,99.35
2019-02-06T10:25:32.457Z,99.99
2019-02-06T10:26:32.404Z,99.73
2019-02-06T10:27:32.357Z,99.58
2019-02-06T10:28:32.339Z,99.99
2019-02-06T10:29:32.250Z,99.99
2019-02-06T10:30:32.199Z,99.99
2019-02-06T10:31:32.924Z,99.99
2019-02-06T10:32:32.096Z,99.99
2019-02-06T10:33:32.077Z,99.99
2019-02-06T10:34:31.995Z,99.99
2019-02-06T10:35:31.944Z,99.96
2019-02-06T10:36:31.901Z,99.99
2019-02-06T10:37:31.871Z,99.63
2019-02-06T10:38:31.785Z,99.99
2019-02-06T10:39:34.619Z,99.26
2019-02-06T10:40:31.686Z,97.97
2019-02-06T10:41:31.629Z,98.54
2019-02-06T10:42:31.581Z,99.54
2019-02-06T10:43:35.289Z,99.58
2019-02-06T10:44:31.514Z,99.39
2019-02-06T10:45:31.420Z,99.06
2019-02-06T10:46:31.368Z,96.88
2019-02-06T10:47:31.323Z,97.45
2019-02-06T10:48:31.297Z,95.55
2019-02-06T10:49:31.214Z,96.31
2019-02-06T10:50:31.160Z,96.59
2019-02-06T10:51:31.110Z,96.69
2019-02-06T10:52:31.065Z,96.97
2019-02-06T10:53:31.035Z,94.70
2019-02-06T10:54:30.957Z,95.17
2019-02-06T10:55:30.903Z,95.74
2019-02-06T10:56:30.852Z,96.55
2019-02-06T10:57:30.828Z,96.17
2019-02-06T10:58:30.749Z,95.17
2019-02-06T10:59:30.693Z,92.85
2019-02-06T11:00:30.641Z,91.99
2019-02-06T11:01:30.592Z,92.09
2019-02-06T11:02:30.580Z,93.41
2019-02-06T11:03:30.489Z,92.28
2019-02-06T11:04:30.439Z,93.41
2019-02-06T11:05:30.390Z,92.71
2019-02-06T11:06:30.337Z,94.23
2019-02-06T11:07:30.311Z,94.03
2019-02-06T11:08:30.230Z,95.03
2019-02-06T11:09:30.185Z,96.45
2019-02-06T11:10:30.123Z,96.26
2019-02-06T11:11:30.104Z,96.97
2019-02-06T11:12:30.016Z,95.55
2019-02-06T11:13:29.964Z,95.36
2019-02-06T11:14:29.943Z,95.27
2019-02-06T11:15:29.864Z,93.65
2019-02-06T11:16:29.806Z,94.51
2019-02-06T11:17:29.758Z,95.74
2019-02-06T11:18:29.736Z,93.84
2019-02-06T11:19:29.650Z,93.84
2019-02-06T11:20:29.598Z,94.79
2019-02-06T11:21:29.546Z,94.42
2019-02-06T11:22:29.525Z,93.75
2019-02-06T11:23:29.435Z,91.66
2019-02-06T11:24:29.388Z,93.94
2019-02-06T11:25:29.335Z,93.56
2019-02-06T11:26:29.314Z,93.46
2019-02-06T11:27:29.229Z,94.42
2019-02-06T11:28:29.176Z,93.56
2019-02-06T11:29:29.150Z,93.46
2019-02-06T11:30:29.112Z,93.89
2019-02-06T11:31:29.014Z,95.69
2019-02-06T11:32:28.962Z,94.89
2019-02-06T11:33:28.909Z,96.03
2019-02-06T11:34:28.854Z,97.64
2019-02-06T11:35:28.948Z,97.73
2019-02-06T11:36:28.745Z,97.64
2019-02-06T11:37:28.693Z,97.40
2019-02-06T11:38:28.644Z,95.93
2019-02-06T11:39:28.592Z,95.93
2019-02-06T11:40:28.565Z,98.02
2019-02-06T11:41:28.482Z,97.26
2019-02-06T11:42:28.428Z,98.49
2019-02-06T11:43:28.403Z,97.92
2019-02-06T11:44:28.321Z,98.96
2019-02-06T11:45:28.274Z,97.83
2019-02-06T11:46:28.218Z,99.06
2019-02-06T11:47:28.158Z,99.48
2019-02-06T11:48:28.140Z,99.48
2019-02-06T11:49:28.052Z,99.67
2019-02-06T11:50:27.998Z,99.99
2019-02-06T11:51:27.975Z,99.99
2019-02-06T11:52:27.889Z,99.99
2019-02-06T11:53:27.835Z,99.99
2019-02-06T11:54:27.782Z,99.99
2019-02-06T11:55:27.756Z,99.99
2019-02-06T11:56:27.680Z,99.25
2019-02-06T11:57:27.621Z,98.91
2019-02-06T11:58:27.603Z,99.99
2019-02-06T11:59:27.511Z,99.99
2019-02-06T12:00:27.460Z,99.99
2019-02-06T12:01:27.402Z,99.99
2019-02-06T12:02:37.028Z,99.99
2019-02-06T12:03:27.326Z,99.99
2019-02-06T12:04:27.237Z,99.53
2019-02-06T12:05:27.186Z,99.63
2019-02-06T12:06:27.130Z,99.99
2019-02-06T12:07:27.073Z,99.34
2019-02-06T12:08:27.050Z,98.96
2019-02-06T12:09:26.990Z,99.82
2019-02-06T12:10:26.912Z,98.96
2019-02-06T12:11:26.858Z,98.49
2019-02-06T12:12:26.801Z,99.82
2019-02-06T12:13:26.753Z,97.92
2019-02-06T12:14:26.737Z,98.11
2019-02-06T12:15:26.638Z,98.77
2019-02-06T12:16:26.600Z,99.25
2019-02-06T12:17:26.530Z,98.77
2019-02-06T12:18:26.479Z,97.92
2019-02-06T12:19:26.489Z,97.21
2019-02-06T12:20:26.368Z,96.31
2019-02-06T12:21:26.311Z,95.36
2019-02-06T12:22:26.260Z,96.78
2019-02-06T12:23:32.423Z,98.21
2019-02-06T12:24:26.273Z,98.68
2019-02-06T12:25:26.094Z,97.16
2019-02-06T12:26:26.038Z,97.26
2019-02-06T12:27:25.992Z,96.69
2019-02-06T12:28:25.931Z,95.93
2019-02-06T12:29:25.911Z,96.41
2019-02-06T12:30:25.854Z,97.54
2019-02-06T12:31:25.773Z,96.69
2019-02-06T12:32:25.758Z,97.07
2019-02-06T12:33:25.659Z,96.73
2019-02-06T12:34:25.604Z,97.21
2019-02-06T12:35:25.582Z,96.64
2019-02-06T12:36:25.528Z,98.35
2019-02-06T12:37:25.445Z,98.91
2019-02-06T12:38:25.423Z,98.96
2019-02-06T12:39:25.334Z,98.49
2019-02-06T12:40:25.277Z,99.82
2019-02-06T12:41:25.314Z,96.78
2019-02-06T12:42:25.170Z,95.93
2019-02-06T12:43:25.163Z,96.31
2019-02-06T12:44:25.071Z,96.41
2019-02-06T12:45:25.002Z,97.64
2019-02-06T12:46:24.951Z,96.59
2019-02-06T12:47:26.875Z,96.41
2019-02-06T12:48:24.879Z,96.12
2019-02-06T12:49:24.803Z,95.26
2019-02-06T12:50:24.732Z,96.03
2019-02-06T12:51:24.673Z,94.98